createdAt,value
2019-01-29T01:01:06.239Z,66.66
2019-01-29T01:06:07.565Z,66.36
2019-01-29T01:11:08.893Z,65.71
2019-01-29T01:16:10.329Z,65.73
2019-01-29T01:21:12.394Z,65.28
2019-01-29T01:26:14.440Z,64.97
2019-01-29T02:34:38.727Z,65.44
2019-01-29T02:39:40.055Z,64.78
2019-01-29T02:44:41.396Z,64.58
2019-01-29T02:49:42.840Z,64.44
2019-01-29T02:54:44.913Z,62.91
2019-01-29T02:59:46.245Z,63.00
2019-01-29T04:01:52.007Z,64.34
2019-01-29T04:06:54.038Z,64.08
2019-01-29T04:11:55.344Z,64.36
2019-01-29T04:16:57.405Z,64.57
2019-01-29T04:21:58.993Z,64.60
2019-01-29T04:27:00.333Z,64.96
2019-01-29T05:35:24.232Z,64.38
2019-01-29T05:40:25.522Z,63.75
2019-01-29T05:45:27.095Z,63.90
2019-01-29T05:50:28.407Z,64.30
2019-01-29T05:55:29.685Z,64.05
2019-01-29T07:03:50.603Z,64.39
2019-01-29T07:08:51.884Z,63.98
2019-01-29T07:13:53.177Z,63.88
2019-01-29T07:18:57.062Z,63.56
2019-01-29T07:23:58.466Z,63.99
2019-01-29T07:29:14.044Z,63.56
2019-01-29T08:31:14.770Z,63.07
2019-01-29T08:36:16.060Z,62.31
2019-01-29T08:41:18.073Z,68.05
2019-01-29T08:46:19.369Z,66.07
2019-01-29T08:51:20.646Z,65.76
2019-01-29T08:56:21.950Z,65.97
2019-01-29T10:04:43.710Z,59.90
2019-01-29T10:09:45.048Z,60.14
2019-01-29T10:14:46.358Z,60.85
2019-01-29T10:19:47.689Z,60.38
2019-01-29T10:24:49.127Z,59.71
2019-01-29T10:29:51.988Z,59.35
2019-01-29T11:31:54.195Z,55.73
2019-01-29T11:36:55.547Z,54.26
2019-01-29T11:41:57.580Z,54.43
2019-01-29T11:46:58.880Z,54.92
2019-01-29T11:52:00.939Z,52.39
2019-01-29T11:57:02.291Z,53.27
2019-01-29T13:05:24.838Z,50.76
2019-01-29T13:10:26.196Z,50.19
2019-01-29T13:15:29.357Z,48.14
2019-01-29T13:20:30.636Z,45.84
2019-01-29T13:25:32.664Z,44.95
2019-01-29T13:30:33.936Z,45.07
2019-01-29T14:32:36.670Z,37.33
2019-01-29T14:37:55.800Z,36.39
2019-01-29T14:42:57.110Z,35.72
2019-01-29T14:47:59.121Z,33.81
2019-01-29T14:53:00.434Z,34.09
2019-01-29T14:58:01.732Z,34.07
2019-01-29T16:01:08.700Z,43.06
2019-01-29T16:06:10.120Z,43.86
2019-01-29T16:11:11.429Z,45.42
2019-01-29T16:16:13.459Z,45.33
2019-01-29T16:21:14.795Z,45.79
2019-01-29T16:26:16.110Z,46.64
2019-01-29T16:31:18.137Z,46.84
2019-01-29T16:36:19.449Z,47.16
2019-01-29T16:41:22.727Z,47.31
2019-01-29T16:46:24.050Z,47.85
2019-01-29T16:51:25.339Z,48.20
2019-01-29T16:56:26.647Z,48.29
2019-01-29T17:01:28.741Z,48.78
2019-01-29T17:06:30.046Z,49.81
2019-01-29T17:11:31.345Z,49.72
2019-01-29T17:16:33.409Z,49.74
2019-01-29T17:21:34.708Z,50.25
2019-01-29T17:26:35.999Z,50.04
2019-01-29T17:31:37.312Z,50.36
2019-01-29T17:36:38.650Z,50.99
2019-01-29T17:41:40.145Z,51.02
2019-01-29T17:46:46.172Z,50.88
2019-01-29T17:51:47.576Z,51.37
2019-01-29T17:56:48.897Z,51.95
2019-01-29T18:01:50.965Z,51.94
2019-01-29T18:06:53.597Z,52.22
2019-01-29T18:11:56.939Z,52.67
2019-01-29T18:16:57.322Z,52.38
2019-01-29T18:21:59.136Z,53.58
2019-01-29T18:27:02.766Z,53.27
2019-01-29T18:32:04.921Z,53.09
2019-01-29T18:37:06.306Z,52.97
2019-01-29T18:42:08.958Z,53.60
2019-01-29T18:47:10.542Z,52.70
2019-01-29T18:52:12.080Z,52.67
2019-01-29T18:57:27.178Z,51.93
2019-01-29T19:02:28.741Z,51.62
2019-01-29T19:07:30.313Z,51.46
2019-01-29T19:12:31.737Z,51.41
2019-01-29T19:17:33.794Z,50.95
2019-01-29T19:22:35.363Z,51.27
2019-01-29T19:27:36.721Z,50.87
2019-01-29T19:32:38.172Z,50.84
2019-01-29T19:37:39.669Z,50.73
2019-01-29T19:42:41.777Z,51.21
2019-01-29T19:47:48.891Z,51.21
2019-01-29T19:52:51.565Z,51.96
2019-01-29T19:58:08.723Z,52.22
2019-01-29T20:03:04.835Z,52.99
2019-01-29T20:08:06.934Z,53.06
2019-01-29T20:13:12.073Z,53.91
2019-01-29T20:18:17.608Z,53.95
2019-01-29T20:23:19.007Z,54.43
2019-01-29T20:28:22.577Z,54.67
2019-01-29T20:33:23.972Z,54.43
2019-01-29T20:38:26.428Z,55.36
2019-01-29T20:43:34.248Z,55.74
2019-01-29T20:48:35.819Z,55.61
2019-01-29T20:53:37.393Z,55.09
2019-01-29T20:58:39.589Z,55.37
2019-01-29T21:03:42.553Z,55.90
2019-01-29T21:08:44.034Z,55.34
2019-01-29T21:13:46.600Z,55.16
2019-01-29T21:18:50.837Z,54.90
2019-01-29T21:23:52.313Z,54.97
2019-01-29T21:29:02.689Z,55.10
2019-01-29T21:33:58.013Z,55.41
2019-01-29T21:39:07.040Z,54.80
2019-01-29T21:44:08.568Z,54.95
2019-01-29T21:49:10.774Z,55.52
2019-01-29T21:54:12.361Z,55.14
2019-01-29T21:59:19.514Z,55.41
2019-01-29T22:04:21.740Z,55.86
2019-01-29T22:09:23.168Z,55.96
2019-01-29T22:14:26.394Z,55.89
2019-01-29T22:19:27.823Z,56.14
2019-01-29T22:24:30.693Z,56.16
2019-01-29T22:29:34.248Z,56.07
2019-01-29T22:34:43.284Z,56.31
2019-01-29T22:39:44.905Z,56.55
2019-01-29T22:44:46.221Z,56.13
2019-01-29T22:49:47.594Z,56.61
2019-01-29T22:54:48.917Z,56.41
2019-01-29T22:59:50.258Z,56.52
2019-01-29T23:30:24.887Z,57.00
2019-01-29T23:35:26.970Z,57.34
2019-01-29T23:40:28.292Z,57.47
2019-01-29T23:45:29.613Z,57.43
2019-01-29T23:50:31.012Z,57.65
2019-01-29T23:55:32.629Z,57.68
